Time;durP1;ratioP1;P1;durP2;ratioP2;P2;SDS_P1;SDS_P2;PMS_P1;PMS_P2;Temp;Humidity;BMP_temperature;BMP_pressure;BME280_temperature;BME280_humidity;BME280_pressure;Samples;Min_cycle;Max_cycle;Signal;HPM_P1;HPM_P2
2021/09/12 00:00:35;;;;;;;36.83;25.90;;;17.30;99.90;;;18.76;100.00;100737.59;4906911;29;20032;-88
2021/09/12 00:03:01;;;;;;;41.97;26.92;;;17.30;99.90;;;18.75;100.00;100744.44;4903613;29;20039;-85
2021/09/12 00:05:28;;;;;;;35.88;24.63;;;17.30;99.90;;;18.77;100.00;100742.03;4904962;29;20414;-89
2021/09/12 00:07:53;;;;;;;36.55;26.20;;;17.30;99.90;;;18.76;100.00;100736.78;4903034;29;20120;-86
2021/09/12 00:10:19;;;;;;;40.70;27.98;;;17.40;99.90;;;18.79;100.00;100738.78;4903321;29;20450;-87
2021/09/12 00:12:45;;;;;;;37.17;26.98;;;17.30;99.90;;;18.78;100.00;100742.84;4904178;29;20024;-87
2021/09/12 00:15:12;;;;;;;35.78;24.80;;;17.30;99.90;;;18.78;100.00;100749.28;4907624;29;20033;-87
2021/09/12 00:17:39;;;;;;;37.90;26.83;;;17.30;99.90;;;18.76;100.00;100743.25;4903536;29;20032;-87
2021/09/12 00:20:08;;;;;;;38.83;27.35;;;17.30;99.90;;;18.75;100.00;100735.19;4904045;29;20091;-87
2021/09/12 00:22:35;;;;;;;42.85;29.13;;;17.30;99.90;;;18.71;100.00;100731.56;4905929;29;20032;-87
2021/09/12 00:25:03;;;;;;;44.00;29.50;;;17.30;99.90;;;18.68;100.00;100730.38;4904510;29;20037;-88
2021/09/12 00:27:29;;;;;;;40.78;27.95;;;17.20;99.90;;;18.67;100.00;100736.41;4904016;29;20429;-88
2021/09/12 00:29:56;;;;;;;35.50;25.42;;;17.20;99.90;;;18.67;100.00;100731.56;4902548;29;20120;-89
2021/09/12 00:32:24;;;;;;;47.28;30.77;;;17.20;99.90;;;18.69;100.00;100731.94;4918145;29;20032;-87
2021/09/12 00:34:51;;;;;;;44.47;30.15;;;17.20;99.90;;;18.69;100.00;100723.47;4901322;29;20326;-88
2021/09/12 00:37:17;;;;;;;41.85;28.17;;;17.20;99.90;;;18.69;100.00;100720.63;4902153;29;20493;-84
2021/09/12 00:39:43;;;;;;;39.63;26.50;;;17.30;99.90;;;18.73;100.00;100726.28;4901918;29;20052;-87
2021/09/12 00:42:09;;;;;;;42.13;28.70;;;17.20;99.90;;;18.71;100.00;100721.03;4907630;29;20055;-86
2021/09/12 00:44:35;;;;;;;41.75;25.95;;;17.20;99.90;;;18.70;100.00;100732.75;4920744;29;20091;-85
2021/09/12 00:47:13;;;;;;;35.13;23.85;;;17.20;99.90;;;18.67;100.00;100719.44;4922632;29;20047;-86
2021/09/12 00:49:42;;;;;;;37.78;25.83;;;17.20;99.90;;;18.64;100.00;100721.06;4920525;29;20119;-86
2021/09/12 00:52:12;;;;;;;43.33;26.75;;;17.20;99.90;;;18.66;100.00;100723.47;4920189;29;20086;-87
2021/09/12 00:54:42;;;;;;;39.63;24.77;;;17.20;99.90;;;18.66;100.00;100721.47;4917925;29;20032;-87
2021/09/12 00:57:11;;;;;;;38.72;25.10;;;17.20;99.90;;;18.67;100.00;100722.28;4900942;29;20032;-87
2021/09/12 00:59:42;;;;;;;37.10;23.95;;;17.20;99.90;;;18.68;100.00;100721.88;4907916;29;20032;-88
2021/09/12 01:02:11;;;;;;;43.97;27.70;;;17.20;99.90;;;18.64;100.00;100723.91;4914198;29;20036;-86
2021/09/12 01:04:38;;;;;;;45.45;27.92;;;17.20;99.90;;;18.59;100.00;100721.50;4921719;29;20032;-87
2021/09/12 01:07:08;;;;;;;48.95;29.65;;;17.20;99.90;;;18.60;100.00;100728.75;4935825;29;20036;-88
2021/09/12 01:09:40;;;;;;;43.58;27.80;;;17.20;99.90;;;18.59;100.00;100727.16;4918841;29;20038;-87
2021/09/12 01:12:09;;;;;;;48.75;28.17;;;17.20;99.90;;;18.60;100.00;100725.13;4921174;29;20024;-85
2021/09/12 01:14:38;;;;;;;41.10;26.17;;;17.20;99.90;;;18.58;100.00;100722.72;4919219;29;20115;-86
2021/09/12 01:17:06;;;;;;;47.42;29.75;;;17.20;99.90;;;18.55;100.00;100723.53;4918950;29;20039;-84
2021/09/12 01:19:34;;;;;;;56.80;32.85;;;17.20;99.90;;;18.54;100.00;100721.94;4918958;29;20036;-87
2021/09/12 01:22:06;;;;;;;56.47;31.05;;;17.10;99.90;;;18.50;100.00;100715.47;4919008;29;20040;-87
2021/09/12 01:24:36;;;;;;;57.58;31.05;;;17.10;99.90;;;18.52;100.00;100726.38;4919243;29;20064;-86
2021/09/12 01:27:03;;;;;;;49.67;30.30;;;17.10;99.90;;;18.52;100.00;100718.72;4919719;29;20420;-84
2021/09/12 01:29:29;;;;;;;43.63;27.70;;;17.10;99.90;;;18.51;100.00;100719.91;4918767;29;20031;-85
2021/09/12 01:31:55;;;;;;;51.13;30.00;;;17.10;99.90;;;18.51;100.00;100711.44;4920629;29;20028;-86
2021/09/12 01:34:20;;;;;;;50.47;29.25;;;17.10;99.90;;;18.47;100.00;100712.63;4920359;29;20396;-85
2021/09/12 01:36:48;;;;;;;52.08;31.23;;;17.10;99.90;;;18.44;100.00;100712.25;4918676;29;20039;-86
2021/09/12 01:39:14;;;;;;;44.90;27.15;;;17.00;99.90;;;18.45;100.00;100710.22;4920415;29;20079;-86
2021/09/12 01:41:40;;;;;;;42.25;25.50;;;17.00;99.90;;;18.47;100.00;100707.78;4917596;29;20040;-86
2021/09/12 01:44:07;;;;;;;47.80;27.45;;;17.00;99.90;;;18.44;100.00;100703.75;4900668;29;20033;-87
2021/09/12 01:46:33;;;;;;;46.75;28.45;;;17.10;99.90;;;18.41;100.00;100706.59;4900650;29;20434;-87
2021/09/12 01:49:06;;;;;;;46.45;27.55;;;17.00;99.90;;;18.41;100.00;100703.75;4900845;29;20037;-87
2021/09/12 01:51:32;;;;;;;48.03;29.40;;;17.00;99.90;;;18.40;100.00;100700.13;4901287;29;20060;-88
2021/09/12 01:53:58;;;;;;;39.35;25.80;;;17.00;99.90;;;18.40;100.00;100694.47;4900586;29;20529;-86
2021/09/12 01:56:24;;;;;;;45.53;25.58;;;17.00;99.90;;;18.42;100.00;100696.91;4902551;29;20429;-87
2021/09/12 01:58:50;;;;;;;48.08;28.30;;;17.00;99.90;;;18.40;100.00;100691.66;4904512;29;20036;-88
2021/09/12 02:01:16;;;;;;;52.20;30.92;;;17.00;99.90;;;18.36;100.00;100690.06;4903327;29;20059;-87
2021/09/12 02:03:42;;;;;;;47.10;27.40;;;17.00;99.90;;;18.31;100.00;100691.28;4920452;29;20044;-86
2021/09/12 02:06:08;;;;;;;52.30;31.55;;;17.00;99.90;;;18.28;100.00;100692.09;4916023;29;20091;-87
2021/09/12 02:08:34;;;;;;;45.00;27.20;;;16.90;99.90;;;18.28;100.00;100696.94;4906331;29;20052;-87
2021/09/12 02:10:59;;;;;;;40.17;25.45;;;16.90;99.90;;;18.26;100.00;100697.38;4904105;29;20039;-87
2021/09/12 02:13:25;;;;;;;52.50;30.88;;;16.80;99.90;;;18.23;100.00;100698.19;4902602;29;20024;-86
2021/09/12 02:15:51;;;;;;;41.92;26.30;;;16.80;99.90;;;18.22;100.00;100701.41;4902979;29;20025;-88
2021/09/12 02:18:17;;;;;;;41.03;26.15;;;16.90;99.90;;;18.22;100.00;100695.75;4903054;29;20497;-88
2021/09/12 02:20:44;;;;;;;48.40;28.20;;;16.90;99.90;;;18.19;100.00;100693.75;4902935;29;20114;-87
2021/09/12 02:23:09;;;;;;;47.08;25.60;;;16.80;99.90;;;18.19;100.00;100693.75;4903353;29;20024;-86
2021/09/12 02:25:35;;;;;;;42.47;25.85;;;16.80;99.90;;;18.20;100.00;100699.00;4904125;29;20029;-87
2021/09/12 02:28:03;;;;;;;44.38;25.70;;;16.80;99.90;;;18.15;100.00;100698.59;4905184;29;20052;-86
2021/09/12 02:30:30;;;;;;;41.10;24.02;;;16.80;99.90;;;18.13;100.00;100689.75;4903124;29;20024;-88
2021/09/12 02:32:56;;;;;;;47.22;26.52;;;16.70;99.90;;;18.06;100.00;100693.38;4904887;29;20029;-84
2021/09/12 02:35:22;;;;;;;44.03;25.23;;;16.70;99.90;;;18.06;100.00;100689.75;4903015;29;20127;-86
2021/09/12 02:37:49;;;;;;;39.22;22.80;;;16.60;99.90;;;18.03;100.00;100684.91;4905039;29;20037;-87
2021/09/12 02:40:15;;;;;;;39.88;24.38;;;16.70;99.90;;;17.99;100.00;100690.56;4904402;29;20068;-85
2021/09/12 02:42:41;;;;;;;43.08;25.48;;;16.70;99.90;;;17.92;100.00;100681.31;4903172;29;20043;-84
2021/09/12 02:45:10;;;;;;;37.08;21.52;;;16.60;99.90;;;17.87;100.00;100677.69;4918158;29;20064;-86
2021/09/12 02:47:37;;;;;;;35.75;21.55;;;16.50;99.90;;;17.84;100.00;100684.16;4902627;29;20032;-85
2021/09/12 02:50:05;;;;;;;39.22;22.38;;;16.50;99.90;;;17.79;100.00;100680.91;4903636;29;20037;-86
2021/09/12 02:52:32;;;;;;;45.58;24.10;;;16.50;99.90;;;17.73;100.00;100682.53;4902858;29;20032;-86
2021/09/12 02:54:57;;;;;;;37.60;23.50;;;16.40;99.90;;;17.65;100.00;100687.41;4902926;29;20040;-86
2021/09/12 02:57:23;;;;;;;40.35;22.45;;;16.40;99.90;;;17.83;100.00;100690.19;4903083;29;20029;-87
2021/09/12 02:59:49;;;;;;;37.13;22.92;;;16.40;99.90;;;17.81;100.00;100684.97;4905274;29;20059;-86
2021/09/12 03:02:15;;;;;;;33.53;19.70;;;16.30;99.90;;;17.62;100.00;100695.91;4904600;29;20047;-86
2021/09/12 03:04:41;;;;;;;41.75;21.23;;;16.30;99.90;;;17.57;100.00;100699.91;4903520;29;20032;-88
2021/09/12 03:07:07;;;;;;;31.05;18.92;;;16.20;99.90;;;17.52;100.00;100693.84;4904344;29;20060;-87
2021/09/12 03:09:33;;;;;;;35.67;21.05;;;16.20;99.90;;;17.46;100.00;100684.16;4904169;29;20052;-87
2021/09/12 03:11:59;;;;;;;34.25;19.35;;;16.20;99.90;;;17.40;100.00;100687.38;4905267;29;20032;-87
2021/09/12 03:14:25;;;;;;;38.08;20.98;;;16.10;99.90;;;17.40;100.00;100693.03;4905468;29;20028;-86
2021/09/12 03:16:51;;;;;;;33.88;19.48;;;16.00;99.90;;;17.37;100.00;100690.19;4903783;29;20040;-87
2021/09/12 03:19:17;;;;;;;33.25;18.90;;;16.00;99.90;;;17.37;100.00;100693.03;4903934;29;20048;-86
2021/09/12 03:21:44;;;;;;;33.95;20.45;;;16.00;99.90;;;17.36;100.00;100697.09;4905412;29;20409;-86
2021/09/12 03:24:10;;;;;;;44.22;22.45;;;16.00;99.90;;;17.39;100.00;100701.91;4906129;29;20036;-87
2021/09/12 03:26:36;;;;;;;37.92;21.45;;;16.10;99.90;;;17.38;100.00;100700.28;4915035;29;20028;-86
2021/09/12 03:29:02;;;;;;;38.55;21.23;;;16.00;99.90;;;17.39;100.00;100699.91;4929318;29;20043;-85
2021/09/12 03:31:28;;;;;;;33.38;19.27;;;16.10;99.90;;;17.39;100.00;100697.09;4900898;29;20031;-85
2021/09/12 03:33:54;;;;;;;41.42;21.20;;;16.00;99.90;;;17.37;100.00;100693.84;4901128;29;20243;-88
2021/09/12 03:36:21;;;;;;;40.10;22.17;;;16.00;99.90;;;17.35;100.00;100698.28;4902277;29;20036;-86
2021/09/12 03:38:48;;;;;;;39.40;18.75;;;16.00;99.90;;;17.36;100.00;100691.44;4901569;29;20581;-87
2021/09/12 03:41:14;;;;;;;42.05;22.67;;;16.00;99.90;;;17.37;100.00;100691.00;4902917;29;20041;-86
2021/09/12 03:43:41;;;;;;;36.78;21.60;;;16.00;99.90;;;17.34;100.00;100697.47;4902355;29;20227;-87
2021/09/12 03:46:06;;;;;;;39.33;22.23;;;16.00;99.90;;;17.31;100.00;100695.44;4916150;29;20032;-88
2021/09/12 03:48:32;;;;;;;46.67;25.23;;;16.00;99.90;;;17.33;100.00;100692.25;4916639;29;20040;-86
2021/09/12 03:50:59;;;;;;;39.58;22.60;;;16.00;99.90;;;17.35;100.00;100701.91;4917691;29;20031;-85
2021/09/12 03:53:25;;;;;;;42.92;22.48;;;16.00;99.90;;;17.35;100.00;100701.91;4918457;29;20496;-85
2021/09/12 03:55:51;;;;;;;39.83;22.58;;;16.00;99.90;;;17.32;100.00;100699.09;4919070;29;20069;-86
2021/09/12 03:58:17;;;;;;;38.90;19.92;;;16.00;99.90;;;17.36;100.00;100706.38;4918265;29;20029;-86
2021/09/12 04:00:43;;;;;;;37.97;22.20;;;16.00;99.90;;;17.36;100.00;100703.53;4918792;29;20093;-84
2021/09/12 04:03:08;;;;;;;45.92;23.48;;;16.00;99.90;;;17.34;100.00;100703.13;4919208;29;20123;-86
2021/09/12 04:05:34;;;;;;;43.03;23.20;;;16.00;99.90;;;17.35;100.00;100704.75;4919716;29;20100;-87
2021/09/12 04:08:00;;;;;;;47.90;23.15;;;16.00;99.90;;;17.32;100.00;100702.72;4919932;29;20036;-89
2021/09/12 04:10:26;;;;;;;46.80;23.48;;;16.00;99.90;;;17.30;100.00;100701.50;4927695;29;20029;-86
2021/09/12 04:12:52;;;;;;;47.60;23.63;;;16.00;99.90;;;17.26;100.00;100693.03;4908613;29;20025;-86
2021/09/12 04:15:18;;;;;;;48.97;24.23;;;15.90;99.90;;;17.25;100.00;100697.06;4901076;29;20063;-86
2021/09/12 04:17:43;;;;;;;47.85;24.27;;;15.90;99.90;;;17.24;100.00;100694.66;4901986;29;20088;-86
2021/09/12 04:20:11;;;;;;;45.97;25.63;;;16.00;99.90;;;17.24;100.00;100697.47;4915561;29;20076;-86
2021/09/12 04:22:36;;;;;;;41.47;23.30;;;15.90;99.90;;;17.24;100.00;100689.03;4916571;29;20042;-84
2021/09/12 04:25:03;;;;;;;55.47;27.42;;;15.90;99.90;;;17.18;100.00;100696.25;4916785;29;20104;-87
2021/09/12 04:27:29;;;;;;;50.03;25.58;;;15.90;99.90;;;17.13;100.00;100689.00;4917058;29;20059;-87
2021/09/12 04:29:56;;;;;;;50.97;27.05;;;15.90;99.90;;;17.11;100.00;100691.44;4917324;29;20032;-87
2021/09/12 04:32:22;;;;;;;47.40;25.65;;;15.80;99.90;;;17.15;100.00;100688.56;4917273;29;20029;-87
2021/09/12 04:34:48;;;;;;;53.10;25.95;;;15.80;99.90;;;17.14;100.00;100695.47;4902440;29;20033;-86
2021/09/12 04:37:15;;;;;;;47.88;24.52;;;15.90;99.90;;;17.16;100.00;100693.03;4917808;29;20207;-85
2021/09/12 04:39:42;;;;;;;49.92;26.95;;;15.90;99.90;;;17.12;100.00;100693.03;4903948;29;20392;-88
2021/09/12 04:42:08;;;;;;;47.75;23.90;;;15.90;99.90;;;17.18;100.00;100684.94;4921279;29;20032;-87
2021/09/12 04:44:35;;;;;;;54.17;27.15;;;15.90;99.90;;;17.10;100.00;100697.47;4921910;29;20166;-85
2021/09/12 04:47:01;;;;;;;49.97;27.17;;;15.90;99.90;;;17.13;100.00;100691.00;4922692;29;20033;-87
2021/09/12 04:49:27;;;;;;;55.88;27.35;;;15.90;99.90;;;17.11;100.00;100694.25;4923937;29;20051;-88
2021/09/12 04:51:53;;;;;;;61.00;27.83;;;15.90;99.90;;;17.16;100.00;100693.03;4939611;29;20032;-90
2021/09/12 04:54:19;;;;;;;58.78;26.23;;;15.90;99.90;;;17.13;100.00;100700.28;4921487;29;20083;-86
2021/09/12 04:56:44;;;;;;;56.58;28.20;;;15.90;99.90;;;17.11;100.00;100694.25;4922590;29;20076;-86
2021/09/12 04:59:10;;;;;;;49.08;25.80;;;15.80;99.90;;;17.07;100.00;100703.91;4920176;29;20079;-86
2021/09/12 05:01:37;;;;;;;54.72;28.20;;;15.80;99.90;;;17.00;100.00;100701.06;4919747;29;20032;-87
2021/09/12 05:04:04;;;;;;;55.08;27.55;;;15.80;99.90;;;17.01;100.00;100700.69;4918327;29;20052;-87
2021/09/12 05:06:30;;;;;;;54.95;27.23;;;15.80;99.90;;;16.95;100.00;100710.75;4920512;29;20020;-87
2021/09/12 05:08:56;;;;;;;57.97;28.83;;;15.80;99.90;;;16.97;100.00;100705.50;4919688;29;20227;-87
2021/09/12 05:11:22;;;;;;;53.72;28.13;;;15.80;99.90;;;16.95;100.00;100705.09;4919812;29;20051;-84
2021/09/12 05:13:48;;;;;;;50.45;25.13;;;15.70;99.90;;;16.95;100.00;100712.75;4919477;29;20076;-87
2021/09/12 05:16:14;;;;;;;51.70;25.13;;;15.80;99.90;;;16.96;100.00;100711.53;4921025;29;20027;-86
2021/09/12 05:18:40;;;;;;;44.15;23.60;;;15.70;99.90;;;16.95;100.00;100713.56;4919477;29;20028;-87
2021/09/12 05:21:06;;;;;;;41.53;22.52;;;15.70;99.90;;;16.98;100.00;100718.41;4935192;29;20090;-87
2021/09/12 05:23:33;;;;;;;41.88;22.48;;;15.70;99.90;;;17.01;100.00;100720.44;4919083;29;20653;-88
2021/09/12 05:25:59;;;;;;;45.03;21.05;;;15.70;99.90;;;17.04;100.00;100724.47;4919610;29;20123;-87
2021/09/12 05:28:25;;;;;;;34.63;20.33;;;15.70;99.90;;;17.04;100.00;100722.44;4920493;29;20040;-87
2021/09/12 05:30:52;;;;;;;34.60;18.95;;;15.70;99.90;;;17.04;100.00;100725.28;4920304;29;20032;-84
2021/09/12 05:33:18;;;;;;;34.83;18.95;;;15.70;99.90;;;17.06;100.00;100725.66;4923697;29;20029;-87
2021/09/12 05:35:44;;;;;;;31.83;18.80;;;15.80;99.90;;;17.04;100.00;100735.75;4923489;29;20469;-85
2021/09/12 05:38:10;;;;;;;29.83;16.75;;;15.70;99.90;;;17.08;100.00;100730.94;4923460;29;20489;-86
2021/09/12 05:40:36;;;;;;;30.15;17.05;;;15.70;99.90;;;17.11;100.00;100732.94;4923091;29;20072;-87
2021/09/12 05:43:02;;;;;;;31.98;15.60;;;15.70;99.90;;;17.07;100.00;100735.75;4911244;29;20032;-84
2021/09/12 05:45:28;;;;;;;27.25;15.50;;;15.70;99.90;;;17.10;100.00;100736.97;4906237;29;20044;-87
2021/09/12 05:47:54;;;;;;;31.55;16.90;;;15.80;99.90;;;17.05;100.00;100743.00;4904804;29;20276;-89
2021/09/12 05:50:20;;;;;;;27.80;14.93;;;15.70;99.90;;;17.05;100.00;100743.78;4905046;29;20120;-87
2021/09/12 05:52:46;;;;;;;24.23;15.07;;;15.70;99.90;;;17.06;100.00;100745.41;4905073;29;20025;-88
2021/09/12 05:55:13;;;;;;;24.27;13.55;;;15.80;99.90;;;17.07;100.00;100749.88;4907019;29;20032;-87
2021/09/12 05:57:39;;;;;;;23.50;13.18;;;15.80;99.90;;;17.16;100.00;100752.28;4906879;29;20033;-88
2021/09/12 06:00:09;;;;;;;17.67;11.48;;;15.80;99.90;;;17.17;100.00;100746.25;4905759;29;20047;-88
2021/09/12 06:02:34;;;;;;;21.00;12.48;;;15.80;99.90;;;17.21;100.00;100752.69;4906999;29;20052;-88
2021/09/12 06:05:03;;;;;;;20.58;11.13;;;15.80;99.90;;;17.09;100.00;100750.25;4906901;29;20068;-88
2021/09/12 06:07:30;;;;;;;20.33;11.13;;;15.80;99.90;;;17.07;100.00;100755.50;4908552;29;20116;-85
2021/09/12 06:09:57;;;;;;;16.58;9.90;;;15.70;99.90;;;17.04;100.00;100755.50;4908090;29;20032;-87
2021/09/12 06:12:25;;;;;;;17.35;10.18;;;15.70;99.90;;;17.06;100.00;100756.72;4909895;29;20032;-88
2021/09/12 06:14:51;;;;;;;20.83;10.35;;;15.70;99.90;;;17.08;100.00;100762.75;4909447;29;20032;-88
2021/09/12 06:17:17;;;;;;;19.52;10.70;;;15.70;99.90;;;17.19;100.00;100759.97;4917309;29;20032;-82
2021/09/12 06:19:43;;;;;;;14.98;9.10;;;15.80;99.90;;;17.38;100.00;100763.22;4912579;29;20079;-88
2021/09/12 06:22:08;;;;;;;24.63;10.48;;;15.90;99.90;;;17.47;100.00;100759.19;4907242;29;20077;-86
2021/09/12 06:24:34;;;;;;;16.77;9.50;;;16.10;99.90;;;17.62;100.00;100766.50;4907730;29;20083;-86
2021/09/12 06:27:01;;;;;;;14.27;8.05;;;16.20;99.90;;;18.04;100.00;100769.31;4906960;29;20043;-86
2021/09/12 06:29:27;;;;;;;15.25;9.40;;;16.40;99.90;;;18.34;100.00;100766.00;4906607;29;20028;-87
2021/09/12 06:31:54;;;;;;;13.35;8.02;;;16.60;99.90;;;18.57;98.86;100776.88;4906799;29;20036;-89
2021/09/12 06:34:19;;;;;;;14.70;8.70;;;16.80;99.90;;;18.44;96.99;100768.81;4906857;29;20028;-89
2021/09/12 06:36:45;;;;;;;16.67;7.72;;;16.90;99.90;;;18.52;95.34;100775.28;4922776;29;20065;-85
2021/09/12 06:39:11;;;;;;;13.85;8.48;;;17.00;99.90;;;18.39;95.53;100771.25;4906930;29;20041;-87
2021/09/12 06:41:38;;;;;;;13.02;7.20;;;16.90;99.90;;;18.44;96.10;100773.66;4918406;29;20029;-85
2021/09/12 06:44:05;;;;;;;11.23;7.88;;;16.90;99.90;;;18.37;96.20;100785.78;4937063;29;20040;-85
2021/09/12 06:46:31;;;;;;;11.18;7.20;;;16.90;99.90;;;18.28;96.86;100782.56;4939129;29;20024;-84
